EmailTwitter


Observations de surface / Québec / EGBB

Régions: Québec | Canada | États-Unis | Europe | France | UK | Elsewhere
Station
Affichage
Infos & localisation pour EGBB | Aide pour décoder les METARs

Observations prises le 2017-05-26 à 01H20 UTC à BIRMINGHAM AIRPO, UK (EGBB)

Température: 14.0 Celsius

Point de rosée: 9.0 Celsius

Humidité relative: 72%

Vents: Sud-est à 7 km/h ou 4 noeuds.

Pression au niveau moyen de la mer: 102.10 kilopascals.

Observation METAR:

EGBB 260120Z 15004KT CAVOK 14/09 Q1021=